Airfield :
LOGIN :

Register | Disclaimer

   EN    FR    IT 

 










Legend :    VFR   Marginal VFR   IFR   Intensive IFR   Very Intensive IFR
Visi :
Ceiling :
>= 8 km
>= 3000ft
5 to 8 km
1000 to 3000 ft
1500m to 5 km
500 to 1000 ft
800 to 1500m
200 to 500 ft
< 800m
< 200 ft
Symbols :   Thunderstorms  Fog  Heavy snow  Heavy precipitations  Wind > 20 kt
SIGMETs :     Misc.  Thunderstorms  Icing  Turbulence  Mountain Waves  Volcanic Ashes






- Airport Elevation : 97 ft
- IATA code : EBJ


EKEB - Esbjerg

CURRENT METAR :
  • 200550Z AUTO 23007KT 9999 BKN082/// 06/05 Q1042

EXPIRED METARs :
  • 200520Z AUTO 24006KT 9999 SCT008/// BKN086/// 06/05 Q1042
  • 200450Z AUTO 24007KT 9999 SCT010/// BKN087/// 06/05 Q1042
  • 200420Z AUTO 23006KT 9999 SCT010/// BKN078/// BKN100/// BKN140/// 05/05 Q1041
  • 200350Z AUTO 24007KT 9999 FEW088/// BKN098/// BKN120/// 05/05 Q1041
  • 200320Z AUTO 24006KT 9999 OVC079/// 05/04 Q1042

TAF TAF EKEB
Valid from the 20 at 06:00 until the 20 at 15:00 UTC


200525Z 2006/2015 25008KT 9999 FEW008
BECMG 2011/2014 BKN012
TEMPO 2014/2015 BKN015



MET'MAP, your aeronautical weather chart ! - Copyright ORBIFLY December 2007 - Disclaimer

ORBIFLY MET'MAP TEAM :

Programming & Development : Alexandra Zaïnal
Concept & original design : Baudouin d'Aumeries
Assistance for programming : Marc-Olivier Méhu
Technical & hardware support : Manuel Goepfert

Contact : metmap@orbifly.com




SOURCES & CREDITS :

   NOAA